Time;durP1;ratioP1;P1;durP2;ratioP2;P2;SDS_P1;SDS_P2;PMS_P1;PMS_P2;Temp;Humidity;BMP_temperature;BMP_pressure;BME280_temperature;BME280_humidity;BME280_pressure;Samples;Min_cycle;Max_cycle;Signal;HPM_P1;HPM_P2
2022/06/18 00:00:04;;;;;;;3.67;1.73;;;;;;;20.04;56.88;100030.69;342749;28;1658;-68
2022/06/18 00:00:20;;;;;;;3.05;1.70;;;;;;;20.04;56.82;100030.69;342504;28;1800;-68
2022/06/18 00:00:32;;;;;;;2.15;1.75;;;;;;;20.04;56.64;100030.69;341659;28;1841;-68
2022/06/18 00:00:44;;;;;;;2.70;1.77;;;;;;;20.05;56.74;100027.13;342210;28;1870;-68
2022/06/18 00:00:56;;;;;;;3.73;1.80;;;;;;;20.05;56.73;100027.13;341671;28;1793;-69
2022/06/18 00:01:09;;;;;;;4.13;1.77;;;;;;;20.07;56.69;100027.88;342090;28;1788;-68
2022/06/18 00:01:21;;;;;;;5.32;1.83;;;;;;;20.07;56.99;100031.34;341423;28;1898;-68
2022/06/18 00:01:37;;;;;;;4.85;1.90;;;;;;;20.06;56.33;100031.44;342076;28;1895;-68
2022/06/18 00:01:49;;;;;;;2.70;1.80;;;;;;;20.03;56.09;100023.75;342043;28;1053;-68
2022/06/18 00:02:01;;;;;;;2.38;1.70;;;;;;;20.05;56.12;100032.41;341796;28;1762;-68
2022/06/18 00:02:15;;;;;;;2.90;1.63;;;;;;;20.05;56.19;100030.59;343226;28;1432;-68
2022/06/18 00:02:28;;;;;;;3.67;1.70;;;;;;;20.07;56.20;100025.25;342620;28;1086;-68
2022/06/18 00:02:41;;;;;;;2.72;1.70;;;;;;;20.07;56.62;100025.25;342900;28;1793;-68
2022/06/18 00:02:54;;;;;;;2.05;1.70;;;;;;;20.06;57.02;100026.16;343237;28;1067;-68
2022/06/18 00:03:06;;;;;;;2.30;1.73;;;;;;;20.05;57.17;100032.41;342848;28;1724;-68
2022/06/18 00:03:18;;;;;;;3.85;1.80;;;;;;;20.05;56.71;100025.34;342898;28;1717;-68
2022/06/18 00:03:31;;;;;;;3.80;1.90;;;;;;;20.05;56.50;100027.13;343427;28;1262;-68
2022/06/18 00:03:43;;;;;;;2.13;1.80;;;;;;;20.03;56.90;100023.75;341981;28;2070;-69
2022/06/18 00:03:55;;;;;;;2.30;1.70;;;;;;;20.02;57.46;100027.31;343501;28;1789;-69
2022/06/18 00:04:11;;;;;;;2.10;1.70;;;;;;;20.01;56.38;100021.22;342856;28;1843;-68
2022/06/18 00:04:24;;;;;;;3.28;1.88;;;;;;;20.02;56.00;100024.69;343459;28;1838;-68
2022/06/18 00:04:36;;;;;;;4.28;1.92;;;;;;;20.01;55.80;100021.22;342703;28;1338;-68
2022/06/18 00:04:49;;;;;;;3.47;1.80;;;;;;;20.03;55.66;100027.22;343643;28;1171;-68
2022/06/18 00:05:01;;;;;;;3.33;1.60;;;;;;;20.03;55.44;100029.03;343290;28;1736;-68
2022/06/18 00:05:17;;;;;;;2.35;1.70;;;;;;;20.04;55.93;100026.28;342777;28;1737;-69
2022/06/18 00:05:31;;;;;;;4.30;1.77;;;;;;;20.04;55.82;100025.44;343361;28;1347;-68
2022/06/18 00:05:45;;;;;;;4.05;1.65;;;;;;;20.04;55.81;100023.66;343429;28;1028;-68
2022/06/18 00:05:57;;;;;;;3.13;1.70;;;;;;;20.04;55.74;100025.44;343522;28;1088;-68
2022/06/18 00:06:10;;;;;;;2.38;1.88;;;;;;;20.06;55.49;100020.88;342640;28;1931;-68
2022/06/18 00:06:22;;;;;;;2.58;2.03;;;;;;;20.07;55.48;100025.25;342564;28;1899;-68
2022/06/18 00:06:56;;;;;;;2.40;1.80;;;;;;;20.03;56.21;100021.13;343256;28;1202;-68
2022/06/18 00:07:13;;;;;;;3.17;1.77;;;;;;;19.75;55.49;100025.53;342860;28;1786;-68
2022/06/18 00:07:26;;;;;;;3.00;1.70;;;;;;;19.65;55.67;100025.25;342419;28;1144;-68
2022/06/18 00:07:42;;;;;;;3.00;1.70;;;;;;;19.49;55.84;100020.13;343833;28;1050;-69
2022/06/18 00:07:56;;;;;;;2.30;1.70;;;;;;;19.54;55.64;100028.59;342630;28;2111;-69
2022/06/18 00:08:21;;;;;;;3.22;1.88;;;;;;;19.64;55.57;100020.94;342544;28;1268;-68
2022/06/18 00:08:33;;;;;;;2.80;1.90;;;;;;;19.68;55.00;100022.44;343394;28;1061;-68
2022/06/18 00:08:45;;;;;;;2.08;1.65;;;;;;;19.73;55.20;100016.88;343744;28;1087;-68
2022/06/18 00:08:58;;;;;;;1.95;1.60;;;;;;;19.73;54.92;100022.16;343781;28;1035;-68
2022/06/18 00:09:11;;;;;;;2.15;1.60;;;;;;;19.78;55.56;100019.22;341817;28;1771;-68
2022/06/18 00:09:27;;;;;;;2.47;1.55;;;;;;;19.80;55.14;100023.47;343150;28;1297;-68
2022/06/18 00:09:42;;;;;;;2.88;1.50;;;;;;;19.82;55.19;100024.22;342502;28;981;-68
2022/06/18 00:09:58;;;;;;;3.63;1.60;;;;;;;19.82;55.33;100020.72;342573;28;1056;-68
2022/06/18 00:10:15;;;;;;;3.40;1.75;;;;;;;19.79;55.13;100019.13;342604;28;1839;-68
2022/06/18 00:10:30;;;;;;;2.88;1.60;;;;;;;19.67;56.02;100022.53;343316;28;1131;-68
2022/06/18 00:10:43;;;;;;;2.22;1.50;;;;;;;19.44;56.92;100021.38;343075;28;1760;-68
2022/06/18 00:13:39;;;;;;;2.00;1.65;;;;;;;19.44;56.64;100022.22;343138;28;1725;-68
2022/06/18 00:13:39;;;;;;;2.50;1.90;;;;;;;19.70;56.50;100017.06;343372;28;1288;-68
2022/06/18 00:13:52;;;;;;;3.83;1.65;;;;;;;19.74;56.26;100021.22;342976;28;1099;-68
2022/06/18 00:14:04;;;;;;;3.65;1.63;;;;;;;19.74;56.59;100018.59;342652;28;1691;-68
2022/06/18 00:14:16;;;;;;;3.45;1.60;;;;;;;19.77;56.81;100020.19;342850;28;2068;-68
2022/06/18 00:14:28;;;;;;;3.42;1.60;;;;;;;19.75;56.98;100020.28;343600;28;1190;-68
2022/06/18 00:14:41;;;;;;;3.22;1.67;;;;;;;19.76;57.14;100021.97;343132;28;1618;-68
2022/06/18 00:14:54;;;;;;;3.55;1.80;;;;;;;19.78;57.23;100020.09;341882;28;1196;-68
2022/06/18 00:15:21;;;;;;;3.50;1.80;;;;;;;19.77;56.72;100023.66;341961;28;1907;-68
2022/06/18 00:15:36;;;;;;;3.42;1.90;;;;;;;19.77;56.20;100018.38;343238;28;1292;-68
2022/06/18 00:15:48;;;;;;;2.67;1.73;;;;;;;19.77;56.05;100015.75;343642;28;1087;-68
2022/06/18 00:16:02;;;;;;;2.22;1.70;;;;;;;19.80;55.79;100023.47;343436;28;1759;-68
2022/06/18 00:16:20;;;;;;;2.25;1.70;;;;;;;19.81;56.48;100021.66;342770;28;1739;-68
2022/06/18 00:16:32;;;;;;;2.80;1.63;;;;;;;19.80;56.90;100023.47;342797;28;1296;-68
2022/06/18 00:16:45;;;;;;;2.45;1.60;;;;;;;19.80;56.91;100018.19;342628;28;1903;-68
2022/06/18 00:16:57;;;;;;;2.90;1.65;;;;;;;19.79;57.12;100008.56;342748;28;1674;-68
2022/06/18 00:17:14;;;;;;;2.42;1.70;;;;;;;19.81;56.77;100019.03;342924;28;1765;-68
2022/06/18 00:17:27;;;;;;;2.00;1.70;;;;;;;19.80;56.35;100018.19;342764;28;1695;-68
2022/06/18 00:17:39;;;;;;;2.88;1.70;;;;;;;19.81;56.09;100019.88;342216;28;1051;-69
2022/06/18 00:17:53;;;;;;;3.13;1.80;;;;;;;19.81;56.83;100014.59;342259;28;1036;-69
2022/06/18 00:18:13;;;;;;;3.63;1.80;;;;;;;19.82;57.09;100016.31;342051;28;1819;-69
2022/06/18 00:18:25;;;;;;;3.45;1.80;;;;;;;19.82;56.52;100018.94;342624;28;1189;-69
2022/06/18 00:18:37;;;;;;;2.60;1.77;;;;;;;19.81;56.51;100014.59;342442;28;1083;-68
2022/06/18 00:18:49;;;;;;;2.28;1.60;;;;;;;19.77;55.75;100018.38;341948;28;1827;-68
2022/06/18 00:19:01;;;;;;;2.33;1.70;;;;;;;19.76;56.05;100014.06;343304;28;1712;-68
2022/06/18 00:19:13;;;;;;;2.50;1.83;;;;;;;19.77;55.77;100018.38;343229;28;2080;-69
2022/06/18 00:19:26;;;;;;;2.78;1.90;;;;;;;19.79;55.72;100007.72;342641;28;1423;-68
2022/06/18 00:19:38;;;;;;;2.70;1.85;;;;;;;19.80;55.60;100018.19;343338;28;1860;-68
2022/06/18 00:19:50;;;;;;;2.47;1.70;;;;;;;19.82;55.72;100020.72;343799;28;1102;-68
2022/06/18 00:20:02;;;;;;;2.75;1.63;;;;;;;19.82;56.58;100018.06;343215;28;1794;-68
2022/06/18 00:20:16;;;;;;;2.58;1.70;;;;;;;19.81;56.29;100014.59;343055;28;1714;-69
2022/06/18 00:20:33;;;;;;;3.42;1.70;;;;;;;19.82;56.38;100013.66;343625;28;1301;-69
2022/06/18 00:20:45;;;;;;;2.95;1.60;;;;;;;19.83;56.54;100012.69;343702;28;1050;-69
2022/06/18 00:21:00;;;;;;;2.15;1.58;;;;;;;19.81;56.67;100014.59;343124;28;1954;-68
2022/06/18 00:21:16;;;;;;;2.58;1.70;;;;;;;19.82;56.57;100010.16;343042;28;1857;-69
2022/06/18 00:21:28;;;;;;;2.58;1.92;;;;;;;19.81;56.61;100009.31;343514;28;1224;-69
2022/06/18 00:21:41;;;;;;;3.25;1.88;;;;;;;19.81;56.28;100009.31;343905;28;1079;-68
2022/06/18 00:21:53;;;;;;;4.13;1.83;;;;;;;19.81;56.20;100011.97;342859;28;1818;-69
2022/06/18 00:22:05;;;;;;;2.78;1.63;;;;;;;19.83;56.40;100023.25;342841;28;1695;-69
2022/06/18 00:22:21;;;;;;;2.35;1.70;;;;;;;19.85;56.13;100016.09;343845;28;1082;-68
2022/06/18 00:22:33;;;;;;;2.55;1.80;;;;;;;19.86;55.89;100003.72;343724;28;1277;-69
2022/06/18 00:22:51;;;;;;;3.20;1.90;;;;;;;19.86;56.33;100009.00;343422;28;1306;-69
2022/06/18 00:23:05;;;;;;;6.13;2.00;;;;;;;19.85;56.21;100009.97;342515;28;2136;-69
2022/06/18 00:23:18;;;;;;;3.70;1.65;;;;;;;19.84;56.03;100014.41;343119;28;1484;-68
2022/06/18 00:23:30;;;;;;;2.00;1.60;;;;;;;19.82;55.95;100012.78;343481;28;1329;-68
2022/06/18 00:23:42;;;;;;;2.25;1.80;;;;;;;19.83;56.29;100006.59;342128;28;1814;-68
2022/06/18 00:23:54;;;;;;;2.72;1.75;;;;;;;19.82;56.29;100011.03;342012;28;1060;-68
2022/06/18 00:24:14;;;;;;;3.50;1.75;;;;;;;19.84;57.09;100013.53;340724;28;2069;-68
2022/06/18 00:24:26;;;;;;;2.55;1.70;;;;;;;19.81;57.31;100009.31;341634;28;1121;-68
2022/06/18 00:24:38;;;;;;;2.75;1.77;;;;;;;19.81;56.40;100013.75;341094;28;1332;-68
2022/06/18 00:24:51;;;;;;;3.10;1.77;;;;;;;19.81;55.93;100013.75;340830;29;1208;-68
2022/06/18 00:25:15;;;;;;;3.97;1.83;;;;;;;19.79;56.59;100015.66;340840;28;2050;-68
2022/06/18 00:25:34;;;;;;;3.83;1.60;;;;;;;19.80;56.99;100017.31;340668;28;1285;-68
2022/06/18 00:25:49;;;;;;;3.90;1.60;;;;;;;19.79;57.40;100016.50;341662;28;1778;-68
2022/06/18 00:26:01;;;;;;;3.35;1.67;;;;;;;19.79;57.31;100015.66;340868;28;1880;-68
2022/06/18 00:26:14;;;;;;;2.78;1.80;;;;;;;19.79;56.68;100011.22;343062;28;1856;-68
2022/06/18 00:26:27;;;;;;;2.80;1.90;;;;;;;19.82;55.92;100011.03;343439;28;1270;-67
2022/06/18 00:26:39;;;;;;;2.72;1.92;;;;;;;19.85;55.50;100013.44;343328;28;1621;-67
2022/06/18 00:26:51;;;;;;;2.90;1.75;;;;;;;19.83;55.12;100012.69;343217;28;1850;-68
2022/06/18 00:27:03;;;;;;;2.63;1.65;;;;;;;19.85;55.38;100015.25;343053;28;1886;-68
2022/06/18 00:27:17;;;;;;;2.78;1.50;;;;;;;19.87;55.17;100016.00;343781;28;1524;-68
2022/06/18 00:27:30;;;;;;;2.97;1.70;;;;;;;19.86;55.42;100012.50;342391;28;1324;-68
2022/06/18 00:27:41;;;;;;;2.22;1.80;;;;;;;19.84;55.97;100011.78;342533;28;1213;-69
2022/06/18 00:27:55;;;;;;;2.33;1.77;;;;;;;19.85;56.39;100008.16;343674;28;1204;-69
2022/06/18 00:28:12;;;;;;;2.63;1.70;;;;;;;19.86;56.41;100012.50;342891;28;1891;-68
2022/06/18 00:28:28;;;;;;;2.42;1.60;;;;;;;19.84;56.49;100013.53;343512;28;1831;-69
2022/06/18 00:28:40;;;;;;;2.25;1.70;;;;;;;19.84;56.58;100009.13;342352;28;1507;-69
2022/06/18 00:28:52;;;;;;;2.53;1.90;;;;;;;19.86;56.76;100011.66;342720;28;1480;-69
2022/06/18 00:29:08;;;;;;;3.10;1.95;;;;;;;19.83;55.94;100007.44;343828;28;1210;-69
2022/06/18 00:29:20;;;;;;;3.50;1.73;;;;;;;19.85;55.54;100016.09;343669;28;1237;-68
2022/06/18 00:29:32;;;;;;;5.43;1.77;;;;;;;19.84;55.66;100014.41;343342;28;1278;-68
2022/06/18 00:29:46;;;;;;;4.55;1.80;;;;;;;19.86;55.21;100009.88;343371;28;1152;-68
2022/06/18 00:29:58;;;;;;;2.80;1.65;;;;;;;19.88;54.97;100009.75;343817;28;849;-68
2022/06/18 00:30:13;;;;;;;2.10;1.60;;;;;;;19.91;54.96;100015.69;343846;28;1016;-68
2022/06/18 00:30:29;;;;;;;2.00;1.50;;;;;;;19.90;54.81;100008.72;342886;28;2364;-69
2022/06/18 00:30:41;;;;;;;2.60;1.58;;;;;;;19.90;54.61;100014.00;343251;28;1793;-69
2022/06/18 00:30:54;;;;;;;3.80;1.75;;;;;;;19.91;54.51;100006.94;342155;28;1236;-69
2022/06/18 00:31:06;;;;;;;3.33;1.80;;;;;;;19.91;54.57;100010.41;343387;28;1117;-68
2022/06/18 00:31:19;;;;;;;2.47;1.90;;;;;;;19.92;54.36;100011.25;343397;28;1055;-68
2022/06/18 00:31:32;;;;;;;3.45;1.90;;;;;;;19.90;54.54;100008.72;341947;28;1313;-68
2022/06/18 00:31:45;;;;;;;3.85;1.80;;;;;;;19.89;55.39;100016.75;342349;28;1064;-68
2022/06/18 00:31:57;;;;;;;3.30;1.83;;;;;;;19.90;55.70;100013.13;342534;28;780;-68
2022/06/18 00:32:09;;;;;;;3.35;1.80;;;;;;;19.88;56.06;100012.38;342047;28;1062;-68
2022/06/18 00:32:21;;;;;;;2.45;1.75;;;;;;;19.87;55.80;100011.56;342173;28;1019;-68
2022/06/18 00:32:33;;;;;;;1.80;1.70;;;;;;;19.88;55.18;100015.91;341894;28;1194;-69
2022/06/18 00:32:46;;;;;;;2.15;1.80;;;;;;;19.88;56.03;100015.91;342455;28;1230;-69
2022/06/18 00:32:58;;;;;;;2.83;1.90;;;;;;;19.91;55.98;100014.84;343419;28;1151;-69
2022/06/18 00:33:10;;;;;;;2.60;1.85;;;;;;;19.90;56.06;100013.13;343545;28;1128;-69
2022/06/18 00:33:23;;;;;;;2.38;1.73;;;;;;;19.89;55.70;100009.66;343413;28;1074;-68
2022/06/18 00:33:39;;;;;;;2.10;1.60;;;;;;;19.89;55.70;100014.09;342032;28;1100;-68
2022/06/18 00:33:51;;;;;;;2.53;1.60;;;;;;;19.90;55.54;100014.00;342432;28;1152;-68
2022/06/18 00:34:02;;;;;;;3.25;1.75;;;;;;;19.89;55.36;100017.56;342120;28;1919;-68
2022/06/18 00:34:15;;;;;;;3.10;1.73;;;;;;;19.90;55.60;100013.13;343269;28;1099;-68
2022/06/18 00:34:27;;;;;;;4.65;1.73;;;;;;;19.90;55.85;100015.78;343778;28;1409;-68
2022/06/18 00:34:39;;;;;;;4.65;1.70;;;;;;;19.90;55.54;100016.66;343795;28;1308;-68
2022/06/18 00:34:51;;;;;;;3.50;1.80;;;;;;;19.88;55.09;100015.91;342827;28;2143;-68
2022/06/18 00:35:03;;;;;;;3.47;1.88;;;;;;;19.90;54.79;100014.00;343606;28;1782;-68
2022/06/18 00:35:15;;;;;;;2.45;1.80;;;;;;;19.89;54.66;100017.56;342348;28;1040;-68
2022/06/18 00:35:28;;;;;;;3.58;1.90;;;;;;;19.90;54.57;100016.66;342329;28;1950;-68
2022/06/18 00:35:41;;;;;;;3.17;1.88;;;;;;;19.90;54.79;100019.28;342394;28;1095;-68
2022/06/18 00:35:58;;;;;;;2.25;1.85;;;;;;;19.92;55.50;100017.38;343514;28;1388;-68
2022/06/18 00:36:15;;;;;;;2.65;1.70;;;;;;;19.92;55.35;100013.88;343661;28;1157;-69
2022/06/18 00:36:27;;;;;;;3.42;1.75;;;;;;;19.91;55.68;100015.69;343574;28;1204;-69
2022/06/18 00:36:42;;;;;;;2.50;1.65;;;;;;;19.93;55.97;100018.22;343605;28;2394;-69
2022/06/18 00:36:54;;;;;;;2.28;1.52;;;;;;;19.92;56.23;100012.13;342959;28;1833;-68
2022/06/18 00:37:06;;;;;;;3.25;1.65;;;;;;;19.91;56.26;100015.69;342843;28;1915;-68
2022/06/18 00:37:19;;;;;;;3.00;1.80;;;;;;;19.92;56.21;100012.13;343787;28;1035;-68
2022/06/18 00:37:32;;;;;;;3.00;1.80;;;;;;;19.92;55.57;100012.13;342523;28;1594;-68
2022/06/18 00:37:45;;;;;;;2.75;1.70;;;;;;;19.90;54.95;100014.00;343184;28;2113;-68
2022/06/18 00:38:03;;;;;;;2.35;1.73;;;;;;;19.90;54.87;100016.66;342570;28;1110;-68
2022/06/18 00:38:23;;;;;;;2.85;1.83;;;;;;;19.89;54.77;100014.94;343408;28;1600;-68
2022/06/18 00:38:39;;;;;;;2.70;2.00;;;;;;;19.90;54.57;100014.00;341840;28;1853;-68
2022/06/18 00:38:51;;;;;;;3.90;1.92;;;;;;;19.91;55.12;100010.41;342193;28;967;-68
2022/06/18 00:39:04;;;;;;;4.45;1.75;;;;;;;19.92;55.27;100012.13;341720;28;1778;-67
2022/06/18 00:39:17;;;;;;;3.25;1.58;;;;;;;19.93;55.41;100011.16;342229;28;1838;-68
2022/06/18 00:39:29;;;;;;;2.90;1.50;;;;;;;19.92;55.17;100012.13;344094;28;1293;-68
2022/06/18 00:39:42;;;;;;;2.92;1.70;;;;;;;19.93;55.01;100016.44;344875;28;1034;-68
2022/06/18 00:39:54;;;;;;;2.25;1.70;;;;;;;19.90;54.74;100019.28;344968;28;1314;-68
2022/06/18 00:40:29;;;;;;;2.30;1.70;;;;;;;19.85;54.48;100016.09;344899;28;1179;-68
2022/06/18 00:40:43;;;;;;;3.47;1.63;;;;;;;19.87;54.76;100014.19;343385;28;1118;-68
2022/06/18 00:40:55;;;;;;;2.47;1.67;;;;;;;19.90;54.66;100014.00;343770;28;1071;-69
2022/06/18 00:41:13;;;;;;;3.65;1.70;;;;;;;19.90;54.60;100013.13;342999;28;1861;-68
2022/06/18 00:41:26;;;;;;;3.35;1.70;;;;;;;19.89;54.42;100017.56;343047;28;2110;-68
2022/06/18 00:41:40;;;;;;;2.75;1.75;;;;;;;19.90;55.21;100019.28;345153;28;1030;-68
2022/06/18 00:41:53;;;;;;;3.20;1.70;;;;;;;19.90;55.47;100015.78;343623;28;1184;-68
2022/06/18 00:42:13;;;;;;;2.63;1.63;;;;;;;19.90;55.79;100018.41;343439;28;1892;-68
2022/06/18 00:42:30;;;;;;;2.75;1.70;;;;;;;19.90;56.31;100016.66;343759;28;2110;-68
2022/06/18 00:42:42;;;;;;;3.33;1.80;;;;;;;19.90;56.38;100013.13;343432;28;1572;-69
2022/06/18 00:42:59;;;;;;;3.20;1.88;;;;;;;19.88;56.37;100015.03;344784;28;1035;-68
2022/06/18 00:43:27;;;;;;;3.78;1.80;;;;;;;19.79;55.37;100011.22;343469;28;1911;-69
2022/06/18 00:43:50;;;;;;;2.75;1.90;;;;;;;19.76;55.87;100011.44;343085;28;1056;-68
2022/06/18 00:44:14;;;;;;;3.10;1.90;;;;;;;19.70;55.74;100012.63;342504;28;1051;-69
2022/06/18 00:44:51;;;;;;;2.95;1.88;;;;;;;19.69;56.18;100010.09;342955;28;1585;-68
2022/06/18 00:45:03;;;;;;;3.53;1.90;;;;;;;19.72;56.40;100013.41;342694;28;1794;-68
2022/06/18 00:45:24;;;;;;;2.00;1.80;;;;;;;19.72;56.07;100010.78;342398;28;1938;-68
2022/06/18 00:45:36;;;;;;;2.13;1.52;;;;;;;19.73;55.83;100012.44;343761;28;1083;-69
2022/06/18 00:45:52;;;;;;;2.08;1.52;;;;;;;19.74;55.99;100008.03;343806;28;1821;-68
2022/06/18 00:46:22;;;;;;;4.30;1.70;;;;;;;19.73;56.17;100012.44;343987;28;1147;-68
2022/06/18 00:46:46;;;;;;;3.50;1.65;;;;;;;19.69;56.32;100010.09;343497;28;1289;-68
2022/06/18 00:47:24;;;;;;;2.72;1.80;;;;;;;19.65;56.25;100008.59;342580;28;1079;-68
2022/06/18 00:48:02;;;;;;;3.58;1.90;;;;;;;19.65;56.96;100011.22;342337;28;1068;-68
2022/06/18 00:48:23;;;;;;;2.58;1.80;;;;;;;19.67;56.23;100017.25;342194;28;1031;-68
2022/06/18 00:48:47;;;;;;;4.80;1.83;;;;;;;19.66;56.74;100010.28;342336;28;1157;-68
2022/06/18 00:49:15;;;;;;;3.47;1.95;;;;;;;19.68;56.65;100011.03;342395;28;1162;-68
2022/06/18 00:49:33;;;;;;;3.45;2.00;;;;;;;19.66;57.06;100007.63;342705;28;1274;-68
2022/06/18 00:49:54;;;;;;;2.40;1.90;;;;;;;19.67;56.55;100011.97;343616;28;1280;-69
2022/06/18 00:50:11;;;;;;;2.40;1.90;;;;;;;19.66;55.92;100005.88;342914;28;1814;-68
2022/06/18 00:50:38;;;;;;;2.70;1.98;;;;;;;19.68;56.70;100013.66;343341;28;1422;-68
2022/06/18 00:50:57;;;;;;;2.78;1.80;;;;;;;19.70;57.00;100009.16;343377;28;1415;-68
2022/06/18 00:51:15;;;;;;;2.67;1.80;;;;;;;19.69;56.79;100005.66;342376;28;1803;-68
2022/06/18 00:51:30;;;;;;;2.63;1.83;;;;;;;19.66;56.20;100010.28;342750;28;1277;-68
2022/06/18 00:51:54;;;;;;;2.35;1.90;;;;;;;19.71;56.54;100008.22;343038;28;1928;-68
2022/06/18 00:52:08;;;;;;;2.20;2.00;;;;;;;19.69;56.88;100007.44;342236;28;1848;-67
2022/06/18 00:52:36;;;;;;;2.00;1.80;;;;;;;19.70;57.21;100017.06;342703;28;1904;-68
2022/06/18 00:52:53;;;;;;;2.60;1.70;;;;;;;19.68;57.60;100003.97;343275;28;1367;-68
2022/06/18 00:53:19;;;;;;;3.53;1.80;;;;;;;19.69;57.27;100007.44;343203;28;1853;-67
2022/06/18 00:53:42;;;;;;;2.75;1.60;;;;;;;19.72;57.68;100009.94;342142;28;1819;-68
2022/06/18 00:54:31;;;;;;;2.92;1.83;;;;;;;19.68;57.35;100011.03;342958;28;1914;-68
2022/06/18 00:54:58;;;;;;;5.90;1.90;;;;;;;19.68;57.14;100003.97;342200;28;1292;-68
2022/06/18 00:55:18;;;;;;;3.13;1.90;;;;;;;19.67;57.65;100009.34;342269;28;1849;-69
2022/06/18 00:55:32;;;;;;;2.67;1.80;;;;;;;19.70;57.96;100009.16;343383;28;1085;-68
2022/06/18 00:55:58;;;;;;;2.70;2.00;;;;;;;19.68;57.75;100003.09;343738;28;1048;-68
2022/06/18 00:56:17;;;;;;;2.97;2.03;;;;;;;19.66;57.90;100010.28;343528;28;1489;-68
2022/06/18 00:56:40;;;;;;;3.45;1.90;;;;;;;19.66;57.99;100010.28;342823;28;1201;-69
2022/06/18 00:57:12;;;;;;;4.15;1.67;;;;;;;19.64;57.14;100002.50;343220;28;1250;-69
2022/06/18 00:57:45;;;;;;;4.28;1.90;;;;;;;19.66;57.61;100010.28;343625;28;1140;-69
2022/06/18 00:58:11;;;;;;;2.17;1.90;;;;;;;19.65;57.89;100013.88;343817;28;1108;-68
2022/06/18 00:58:28;;;;;;;4.25;2.00;;;;;;;19.63;57.52;99999.94;343097;28;1819;-68
2022/06/18 00:58:53;;;;;;;4.50;1.88;;;;;;;19.66;57.81;100005.00;343813;28;1287;-68
2022/06/18 00:59:14;;;;;;;4.18;1.90;;;;;;;19.65;57.93;100000.69;342264;28;1722;-69
2022/06/18 00:59:34;;;;;;;2.63;1.90;;;;;;;19.64;57.30;100006.88;343531;28;1245;-68
2022/06/18 00:59:54;;;;;;;2.10;1.73;;;;;;;19.61;57.64;99997.41;343790;28;1039;-69
2022/06/18 01:00:22;;;;;;;3.13;1.88;;;;;;;19.67;57.72;100006.72;342911;28;1808;-68
2022/06/18 01:00:54;;;;;;;2.50;1.80;;;;;;;19.66;57.24;99997.09;343590;28;1827;-68
2022/06/18 01:01:21;;;;;;;2.78;1.92;;;;;;;19.65;57.97;100003.31;342311;28;1257;-68
2022/06/18 01:01:38;;;;;;;2.72;1.83;;;;;;;19.67;57.87;100001.44;343304;28;1352;-69
2022/06/18 01:01:50;;;;;;;4.30;1.85;;;;;;;19.66;58.06;100002.38;343433;28;1330;-68
2022/06/18 01:02:04;;;;;;;4.22;1.83;;;;;;;19.69;58.05;100002.19;342785;28;1763;-69
2022/06/18 01:02:22;;;;;;;4.30;1.80;;;;;;;19.67;57.42;99996.16;342758;28;1894;-69
2022/06/18 01:02:38;;;;;;;3.13;1.85;;;;;;;19.66;56.93;99997.09;343399;28;1559;-68
2022/06/18 01:02:52;;;;;;;4.43;1.92;;;;;;;19.66;56.60;99999.72;343378;28;1545;-67
2022/06/18 01:03:06;;;;;;;4.78;1.85;;;;;;;19.67;56.19;99996.16;342783;28;1836;-68
2022/06/18 01:03:21;;;;;;;3.33;1.77;;;;;;;19.68;56.36;100001.34;343222;28;1469;-68
2022/06/18 01:03:36;;;;;;;4.03;1.80;;;;;;;19.70;56.22;99996.81;343026;28;1168;-68
2022/06/18 01:03:49;;;;;;;4.40;1.80;;;;;;;19.72;56.31;99999.38;342631;28;1997;-68
2022/06/18 01:04:24;;;;;;;3.10;1.80;;;;;;;19.73;57.10;99998.44;342837;28;1933;-68
2022/06/18 01:04:36;;;;;;;3.13;1.80;;;;;;;19.74;56.88;100000.97;342244;28;1421;-69
2022/06/18 01:04:48;;;;;;;2.10;1.90;;;;;;;19.75;56.63;100001.81;341969;28;1109;-69
2022/06/18 01:05:01;;;;;;;2.20;2.00;;;;;;;19.78;56.50;99999.00;343509;28;1285;-69
2022/06/18 01:05:25;;;;;;;3.08;2.10;;;;;;;19.79;56.34;99999.81;341936;28;1816;-69
2022/06/18 01:05:39;;;;;;;3.78;2.10;;;;;;;19.80;56.34;100006.78;343319;28;964;-68
2022/06/18 01:05:53;;;;;;;3.33;1.98;;;;;;;19.80;55.81;99999.72;342610;28;1833;-68
2022/06/18 01:06:22;;;;;;;3.30;1.90;;;;;;;19.75;55.88;99997.38;343008;28;1890;-68
2022/06/18 01:06:34;;;;;;;2.50;2.05;;;;;;;19.75;55.98;99999.16;343423;28;1548;-67
2022/06/18 01:06:46;;;;;;;2.10;1.90;;;;;;;19.74;56.17;100000.13;342934;28;1901;-68
2022/06/18 01:07:31;;;;;;;2.50;1.95;;;;;;;19.72;56.92;100002.03;342274;28;1878;-68
2022/06/18 01:07:46;;;;;;;3.60;2.10;;;;;;;19.71;56.10;99997.69;342561;28;1903;-68
2022/06/18 01:08:00;;;;;;;2.55;2.00;;;;;;;19.72;55.90;99999.38;343768;28;1877;-68
2022/06/18 01:08:19;;;;;;;2.78;1.90;;;;;;;19.73;56.01;99998.44;343676;28;1226;-67
2022/06/18 01:08:33;;;;;;;2.63;1.80;;;;;;;19.73;56.67;99998.44;343277;28;1426;-68
2022/06/18 01:08:48;;;;;;;2.58;2.00;;;;;;;19.74;56.73;100005.41;343666;28;1031;-68
2022/06/18 01:09:06;;;;;;;2.53;2.10;;;;;;;19.71;56.95;99998.53;342682;28;1627;-68
2022/06/18 01:09:18;;;;;;;4.00;2.05;;;;;;;19.74;56.82;100000.13;342280;28;1075;-69
2022/06/18 01:09:32;;;;;;;5.13;2.10;;;;;;;19.74;56.96;99998.34;342944;28;1329;-68
2022/06/18 01:09:47;;;;;;;3.85;2.10;;;;;;;19.76;56.75;99998.25;343548;28;1359;-68
2022/06/18 01:10:01;;;;;;;3.15;2.10;;;;;;;19.75;56.06;99999.16;343691;28;1059;-68
2022/06/18 01:10:21;;;;;;;3.20;2.00;;;;;;;19.74;56.19;99994.84;343641;28;1072;-68
2022/06/18 01:10:41;;;;;;;3.97;1.83;;;;;;;19.73;57.13;99995.78;343423;28;1369;-68
2022/06/18 01:10:57;;;;;;;3.97;1.90;;;;;;;19.74;56.82;100002.78;343802;28;1506;-68
2022/06/18 01:11:19;;;;;;;2.80;1.90;;;;;;;19.77;56.73;99997.28;343763;28;1070;-68
2022/06/18 01:11:35;;;;;;;4.63;1.90;;;;;;;19.79;56.79;99990.09;343601;28;1173;-68
2022/06/18 01:11:47;;;;;;;2.72;1.85;;;;;;;19.81;56.85;99995.28;343779;28;1114;-68
2022/06/18 01:12:00;;;;;;;2.70;1.80;;;;;;;19.80;57.18;99990.94;343834;28;1019;-68
2022/06/18 01:12:12;;;;;;;3.42;1.90;;;;;;;19.79;56.96;99995.38;343889;28;1079;-68
2022/06/18 01:12:25;;;;;;;3.55;2.00;;;;;;;19.79;56.93;100000.66;343808;28;1259;-67
2022/06/18 01:12:37;;;;;;;3.83;2.10;;;;;;;19.79;56.06;99995.38;343124;28;1598;-68
2022/06/18 01:12:50;;;;;;;5.68;2.10;;;;;;;19.80;55.93;99991.81;342776;28;1079;-68
2022/06/18 01:13:06;;;;;;;5.10;2.03;;;;;;;19.79;56.12;99989.28;343689;28;1300;-68
2022/06/18 01:13:23;;;;;;;4.18;2.05;;;;;;;19.78;56.14;99991.06;343788;28;1092;-67
2022/06/18 01:13:38;;;;;;;3.08;1.92;;;;;;;19.80;56.32;99990.94;343628;28;1334;-67
2022/06/18 01:13:50;;;;;;;2.13;1.73;;;;;;;19.80;56.77;99997.09;343709;28;1074;-67
2022/06/18 01:14:07;;;;;;;2.50;1.80;;;;;;;19.82;56.84;99999.59;343669;28;1054;-68
2022/06/18 01:14:19;;;;;;;3.42;2.00;;;;;;;19.83;56.93;99990.75;342901;28;1577;-68
2022/06/18 01:14:32;;;;;;;3.90;2.03;;;;;;;19.81;56.83;99993.50;343213;28;1185;-68
2022/06/18 01:14:50;;;;;;;3.55;1.95;;;;;;;19.83;56.43;99993.41;343428;28;1415;-68
2022/06/18 01:15:10;;;;;;;2.75;1.80;;;;;;;19.86;56.35;99991.41;343495;28;1052;-68
2022/06/18 01:15:23;;;;;;;4.72;2.00;;;;;;;19.86;56.10;99991.41;343392;28;1861;-68
2022/06/18 01:15:35;;;;;;;4.40;1.90;;;;;;;19.86;56.39;99986.13;343528;28;1038;-68
2022/06/18 01:15:48;;;;;;;4.55;2.20;;;;;;;19.86;56.56;99990.53;343833;28;1244;-68
2022/06/18 01:16:03;;;;;;;4.70;2.30;;;;;;;19.86;56.82;99990.53;343705;28;1051;-69
2022/06/18 01:16:18;;;;;;;3.63;2.00;;;;;;;19.84;56.59;99993.31;342104;28;1672;-67
2022/06/18 01:16:32;;;;;;;3.00;1.90;;;;;;;19.85;56.56;99984.44;341538;28;1378;-68
2022/06/18 01:16:45;;;;;;;2.85;1.98;;;;;;;19.86;56.38;99991.41;343420;28;1609;-69
2022/06/18 01:17:00;;;;;;;2.83;1.90;;;;;;;19.88;55.92;99989.53;343820;28;1279;-68
2022/06/18 01:17:13;;;;;;;3.27;1.90;;;;;;;19.86;55.72;99995.81;342766;28;1552;-68
2022/06/18 01:17:26;;;;;;;3.45;2.10;;;;;;;19.87;55.84;99992.25;341565;28;1807;-69
2022/06/18 01:17:40;;;;;;;2.40;2.10;;;;;;;19.86;56.24;99996.69;343275;28;1561;-68
2022/06/18 01:17:53;;;;;;;2.22;1.98;;;;;;;19.86;55.97;99988.78;342605;28;1223;-68
2022/06/18 01:18:06;;;;;;;2.10;1.90;;;;;;;19.88;55.91;99991.28;342439;28;1771;-69
2022/06/18 01:18:18;;;;;;;2.42;1.95;;;;;;;19.89;56.34;100000.91;343300;28;1699;-68
2022/06/18 01:18:31;;;;;;;3.00;1.98;;;;;;;19.88;56.48;99994.78;343353;28;1386;-68